• Join FlightAware (Why Join?)
  • Login
  • US Flag 
04:24PM EDT


 

Airport Tracker/Info


-or-


 

Live Flight TrackerFlight Track Log ✈ SWA720 ✈ 11-Apr-2013 ✈ KSJC - KLAX

Flight Track Log - Related Links

Times and Time Zones

All times are in EDT time to prevent confusion due to time zone crossing. See the SWA720 flight status page for this flight to view local times or setup timezone preferences in your user account.

Time Position Orientation Groundspeed Altitude Reporting Facility
EDT Latitude Longitude Course Direction KTS MPH feet Rate Location/Type
10:58AM 37.4000 -121.9667 141° Southeast 189 217 2,000  Level Northern Cal TRACON
10:59AM 37.4500 -121.9333 28° Northeast 216 249 4,900 1,980 Climbing Northern Cal TRACON
11:01AM 37.3211 -121.7778 136° Southeast 293 337 9,100 1,980 Climbing Oakland Center
11:02AM 37.2525 -121.7050 140° Southeast 321 369 12,100 3,000 Climbing Oakland Center
11:03AM 36.7165 -121.2318 141° Southeast  Level Estimated
11:03AM 37.1767 -121.6178 137° Southeast 366 421 15,300  Level Oakland Center
11:04AM 37.0986 -121.5347 140° Southeast 370 426 17,700 2,220 Climbing Oakland Center
11:05AM 37.0172 -121.4444 138° Southeast 409 471 19,900 2,580 Climbing Oakland Center
11:06AM 36.9156 -121.3294 138° Southeast 412 474 23,000 2,460 Climbing Oakland Center
11:07AM 36.8225 -121.2331 140° Southeast 433 498 25,000 2,100 Climbing Oakland Center
11:08AM 36.7258 -121.1244 138° Southeast 445 512 27,300 1,800 Climbing Oakland Center
11:09AM 36.6303 -121.0222 139° Southeast 450 518 28,700 1,260 Climbing Oakland Center
11:10AM 36.5281 -120.9156 140° Southeast 473 544 30,000 1,560 Climbing Oakland Center
11:11AM 36.4253 -120.8008 138° Southeast 491 565 31,900 1,560 Climbing Oakland Center
11:12AM 36.3233 -120.6911 139° Southeast 489 563 33,200 1,440 Climbing Oakland Center
11:13AM 36.2175 -120.5797 140° Southeast 496 571 34,900 1,560 Climbing Oakland Center
11:14AM 36.1142 -120.4689 139° Southeast 492 566 36,500 1,020 Climbing Oakland Center
11:15AM 36.0122 -120.3622 140° Southeast 481 554 37,000 240 Climbing Oakland Center
11:16AM 35.9092 -120.2558 140° Southeast 481 554 37,000  Level Oakland Center
11:17AM 35.8078 -120.1461 139° Southeast 483 556 37,000  Level Oakland Center
11:18AM 35.7033 -120.0394 140° Southeast 485 558 37,000  Level Oakland Center
11:20AM 35.5972 -119.9344 141° Southeast 487 560 37,000  Level Oakland Center
11:21AM 35.4633 -119.8189 145° Southeast 486 559 37,000  Level Oakland Center
11:22AM 35.3522 -119.7242 145° Southeast 486 559 37,000  Level Oakland Center
11:23AM 35.2403 -119.6283 145° Southeast 488 562 37,000 -1,020 Level Oakland Center
11:24AM 35.1311 -119.5361 145° Southeast 479 551 35,000 -2,460 Descending Oakland Center
11:25AM 35.0239 -119.4419 144° Southeast 475 547 32,000 -2,940 Descending Oakland Center
11:26AM 34.9156 -119.3514 146° Southeast 473 544 29,000 -2,760 Descending Oakland Center
11:27AM 34.8061 -119.2583 145° Southeast 476 548 26,500 -2,400 Descending Oakland Center
11:28AM 34.7011 -119.1692 145° Southeast 467 537 24,100 -2,400 Descending Oakland Center
11:29AM 34.5625 -119.0550 146° Southeast 444 511 21,000 -2,400 Descending Los Angeles Center
11:30AM 34.4608 -118.9703 145° Southeast 415 478 18,600 -2,280 Descending Los Angeles Center
11:31AM 34.3689 -118.8931 145° Southeast 401 461 16,400 -2,220 Descending Los Angeles Center
11:32AM 34.2694 -118.8494 160° South 381 438 14,100 -2,160 Descending Los Angeles Center
11:33AM 34.1633 -118.8100 163° South 372 428 12,000 -1,440 Descending Los Angeles Center
11:34AM 34.0911 -118.7419 142° Southeast 341 392 11,200 -1,020 Descending Los Angeles Center
11:35AM 34.0608 -118.6292 108° East 327 376 9,900 -1,500 Descending Los Angeles Center
11:36AM 34.0317 -118.5328 110° East 311 358 8,200 -1,560 Descending Los Angeles Center
11:37AM 34.0139 -118.4358 102° East 298 343 6,700 -1,980 Descending Los Angeles Center
11:38AM 34.0231 -118.3361 84° East 276 318 4,200 -1,500 Descending Los Angeles Center
11:39AM 34.0144 -118.2686 99° East 217 250 3,600 -960 Descending Los Angeles Center
11:40AM 33.9731 -118.2967 209° Southwest 166 191 2,300 -1,200 Descending Los Angeles Center
11:41AM 33.9592 -118.3394 249° West 147 169 1,200 -960 Descending Los Angeles Center
11:42AM 33.9542 -118.3858 263° West 141 162 400 -540 Descending Los Angeles Center
11:43AM 33.9503 -118.4308 264° West 139 160 100 -300 Descending Los Angeles Center
11:45AM 33.9425 -118.4081 79° East  Level Estimated
11:52AM 33.9425 -118.4081 228° Southwest  Level Estimated